createdAt,value
2017-06-14T00:00:35.617Z,1014.62
2017-06-14T00:01:45.563Z,1014.52
2017-06-14T00:02:55.817Z,1014.56
2017-06-14T00:04:05.761Z,1014.56
2017-06-14T00:05:16.024Z,1014.57
2017-06-14T00:06:25.976Z,1014.57
2017-06-14T00:07:35.299Z,1014.6
2017-06-14T00:08:45.249Z,1014.61
2017-06-14T00:09:55.516Z,1014.61
2017-06-14T00:11:05.776Z,1014.63
2017-06-14T00:12:16.035Z,1014.63
2017-06-14T00:13:25.983Z,1014.66
2017-06-14T00:14:35.929Z,1014.68
2017-06-14T00:15:45.870Z,1014.65
2017-06-14T00:16:55.816Z,1014.64
2017-06-14T00:18:05.764Z,1014.62
2017-06-14T00:19:16.031Z,1014.6
2017-06-14T00:20:26.289Z,1014.62
2017-06-14T00:21:35.918Z,1014.64
2017-06-14T00:22:45.240Z,1014.6
2017-06-14T00:23:54.877Z,1014.65
2017-06-14T00:25:05.145Z,1014.61
2017-06-14T00:26:15.406Z,1014.68
2017-06-14T00:27:25.671Z,1014.68
2017-06-14T00:28:35.941Z,1014.69
2017-06-14T00:29:45.599Z,1014.69
2017-06-14T00:30:55.546Z,1014.74
2017-06-14T00:32:05.188Z,1014.69
2017-06-14T00:33:15.511Z,1014.72
2017-06-14T00:34:25.458Z,1014.71
2017-06-14T00:35:35.719Z,1014.74
2017-06-14T00:36:46.013Z,1014.76
2017-06-14T00:37:55.645Z,1014.73
2017-06-14T00:39:05.910Z,1014.69
2017-06-14T00:40:16.182Z,1014.74
2017-06-14T00:41:26.441Z,1014.75
2017-06-14T00:42:36.710Z,1014.73
2017-06-14T00:43:46.660Z,1014.76
2017-06-14T00:44:56.915Z,1014.79
2017-06-14T00:46:06.869Z,1014.82
2017-06-14T00:47:16.506Z,1014.76
2017-06-14T00:48:26.451Z,1014.79
2017-06-14T00:49:36.707Z,1014.71
2017-06-14T00:50:46.656Z,1014.75
2017-06-14T00:51:56.921Z,1014.74
2017-06-14T00:53:06.867Z,1014.69
2017-06-14T00:54:16.820Z,1014.65
2017-06-14T00:55:26.453Z,1014.67
2017-06-14T00:56:36.404Z,1014.61
2017-06-14T00:57:46.352Z,1014.67
2017-06-14T00:58:56.308Z,1014.63
2017-06-14T01:00:06.263Z,1014.66
2017-06-14T01:01:16.526Z,1014.73
2017-06-14T01:02:26.472Z,1014.75
2017-06-14T01:03:36.428Z,1014.71
2017-06-14T01:04:46.692Z,1014.73
2017-06-14T01:05:56.638Z,1014.71
2017-06-14T01:07:06.899Z,1014.73
2017-06-14T01:08:16.848Z,1014.7
2017-06-14T01:09:26.492Z,1014.78
2017-06-14T01:10:36.438Z,1014.73
2017-06-14T01:11:46.701Z,1014.77
2017-06-14T01:12:56.960Z,1014.73
2017-06-14T01:14:06.600Z,1014.81
2017-06-14T01:15:16.550Z,1014.74
2017-06-14T01:16:26.179Z,1014.72
2017-06-14T01:17:36.128Z,1014.76
2017-06-14T01:18:46.074Z,1014.76
2017-06-14T01:19:56.337Z,1014.77
2017-06-14T01:21:06.602Z,1014.77
2017-06-14T01:22:16.552Z,1014.69
2017-06-14T01:23:26.812Z,1014.72
2017-06-14T01:24:36.759Z,1014.7
2017-06-14T01:25:46.393Z,1014.7
2017-06-14T01:26:56.342Z,1014.65
2017-06-14T01:28:06.604Z,1014.7
2017-06-14T01:29:16.551Z,1014.64
2017-06-14T01:30:26.187Z,1014.68
2017-06-14T01:31:36.138Z,1014.67
2017-06-14T01:32:45.455Z,1014.64
2017-06-14T01:33:55.407Z,1014.62
2017-06-14T01:35:05.665Z,1014.62
2017-06-14T01:36:15.929Z,1014.61
2017-06-14T01:37:25.876Z,1014.63
2017-06-14T01:38:36.135Z,1014.63
2017-06-14T01:39:46.395Z,1014.66
2017-06-14T01:40:56.344Z,1014.62
2017-06-14T01:42:06.290Z,1014.62
2017-06-14T01:43:16.240Z,1014.66
2017-06-14T01:44:26.496Z,1014.7
2017-06-14T01:45:36.761Z,1014.64
2017-06-14T01:46:47.026Z,1014.7
2017-06-14T01:47:56.657Z,1014.69
2017-06-14T01:49:06.921Z,1014.72
2017-06-14T01:50:16.863Z,1014.73
2017-06-14T01:51:26.809Z,1014.73
2017-06-14T01:52:37.073Z,1014.7
2017-06-14T01:53:47.024Z,1014.67
2017-06-14T01:54:56.968Z,1014.67
2017-06-14T01:56:06.609Z,1014.69
2017-06-14T01:57:16.867Z,1014.63
2017-06-14T01:58:27.134Z,1014.65
2017-06-14T01:59:37.084Z,1014.6
2017-06-14T02:00:47.029Z,1014.64
2017-06-14T02:01:56.979Z,1014.64
2017-06-14T02:03:06.920Z,1014.57
2017-06-14T02:04:16.872Z,1014.62
2017-06-14T02:05:27.145Z,1014.58
2017-06-14T02:06:37.096Z,1014.61
2017-06-14T02:07:47.360Z,1014.62
2017-06-14T02:08:57.621Z,1014.6
2017-06-14T02:10:07.564Z,1014.64
2017-06-14T02:11:17.510Z,1014.64
2017-06-14T02:12:27.773Z,1014.65
2017-06-14T02:13:37.723Z,1014.63
2017-06-14T02:14:47.985Z,1014.64
2017-06-14T02:15:57.925Z,1014.65
2017-06-14T02:17:07.911Z,1014.61
2017-06-14T02:18:18.168Z,1014.6
2017-06-14T02:19:28.116Z,1014.6
2017-06-14T02:20:38.383Z,1014.6
2017-06-14T02:21:48.737Z,1014.58
2017-06-14T02:22:58.680Z,1014.57
2017-06-14T02:24:08.665Z,1014.59
2017-06-14T02:25:18.618Z,1014.6
2017-06-14T02:26:28.879Z,1014.64
2017-06-14T02:27:38.833Z,1014.65
2017-06-14T02:28:48.783Z,1014.65
2017-06-14T02:29:58.730Z,1014.66
2017-06-14T02:31:08.678Z,1014.69
2017-06-14T02:32:18.943Z,1014.7
2017-06-14T02:33:29.207Z,1014.72
2017-06-14T02:34:39.470Z,1014.71
2017-06-14T02:35:49.731Z,1014.69
2017-06-14T02:36:59.369Z,1014.72
2017-06-14T02:38:09.007Z,1014.72
2017-06-14T02:39:19.272Z,1014.71
2017-06-14T02:40:29.540Z,1014.77
2017-06-14T02:41:39.522Z,1014.75
2017-06-14T02:42:49.469Z,1014.78
2017-06-14T02:43:59.104Z,1014.78
2017-06-14T02:45:09.369Z,1014.78
2017-06-14T02:46:19.674Z,1014.84
2017-06-14T02:47:29.945Z,1014.82
2017-06-14T02:48:40.217Z,1014.83
2017-06-14T02:49:50.482Z,1014.84
2017-06-14T02:51:00.742Z,1014.83
2017-06-14T02:52:10.369Z,1014.81
2017-06-14T02:53:20.634Z,1014.82
2017-06-14T02:54:30.894Z,1014.81
2017-06-14T02:55:41.157Z,1014.82
2017-06-14T02:56:51.126Z,1014.85
2017-06-14T02:58:01.419Z,1014.84
2017-06-14T02:59:11.688Z,1014.85
2017-06-14T03:00:21.634Z,1014.84
2017-06-14T03:01:31.265Z,1014.86
2017-06-14T03:02:40.901Z,1014.89
2017-06-14T03:03:51.153Z,1014.88
2017-06-14T03:05:01.094Z,1014.87
2017-06-14T03:06:11.041Z,1014.93
2017-06-14T03:07:20.988Z,1014.94
2017-06-14T03:08:31.264Z,1014.92
2017-06-14T03:09:41.531Z,1014.96
2017-06-14T03:10:51.789Z,1015.01
2017-06-14T03:12:02.058Z,1015.04
2017-06-14T03:13:12.004Z,1015.05
2017-06-14T03:14:21.947Z,1015.14
2017-06-14T03:15:31.899Z,1015.11
2017-06-14T03:16:41.844Z,1015.19
2017-06-14T03:17:52.103Z,1015.15
2017-06-14T03:19:02.051Z,1015.13
2017-06-14T03:20:11.681Z,1015.17
2017-06-14T03:21:21.311Z,1015.17
2017-06-14T03:22:31.571Z,1015.12
2017-06-14T03:23:41.519Z,1015.16
2017-06-14T03:24:51.783Z,1015.18
2017-06-14T03:26:01.731Z,1015.24
2017-06-14T03:27:11.681Z,1015.23
2017-06-14T03:28:21.951Z,1015.24
2017-06-14T03:29:32.210Z,1015.22
2017-06-14T03:30:42.476Z,1015.25
2017-06-14T03:31:52.737Z,1015.28
2017-06-14T03:33:02.685Z,1015.3
2017-06-14T03:34:12.326Z,1015.26
2017-06-14T03:35:22.275Z,1015.31
2017-06-14T03:36:32.228Z,1015.32
2017-06-14T03:37:42.496Z,1015.3
2017-06-14T03:38:52.442Z,1015.29
2017-06-14T03:40:02.702Z,1015.33
2017-06-14T03:41:12.017Z,1015.35
2017-06-14T03:42:22.277Z,1015.37
2017-06-14T03:43:32.227Z,1015.39
2017-06-14T03:44:42.175Z,1015.39
2017-06-14T03:45:52.126Z,1015.39
2017-06-14T03:47:02.072Z,1015.43
2017-06-14T03:48:12.334Z,1015.44
2017-06-14T03:49:22.597Z,1015.44
2017-06-14T03:50:32.861Z,1015.47
2017-06-14T03:51:43.131Z,1015.47
2017-06-14T03:52:53.084Z,1015.44
2017-06-14T03:54:02.720Z,1015.48
2017-06-14T03:55:12.985Z,1015.47
2017-06-14T03:56:23.265Z,1015.46
2017-06-14T03:57:32.895Z,1015.48
2017-06-14T03:58:42.525Z,1015.5
2017-06-14T03:59:52.472Z,1015.54
2017-06-14T04:01:02.736Z,1015.51
2017-06-14T04:02:12.997Z,1015.55
2017-06-14T04:03:23.254Z,1015.47
2017-06-14T04:04:33.201Z,1015.53
2017-06-14T04:05:43.458Z,1015.47
2017-06-14T04:06:53.717Z,1015.48
2017-06-14T04:08:03.665Z,1015.48
2017-06-14T04:09:13.297Z,1015.49
2017-06-14T04:10:22.932Z,1015.51
2017-06-14T04:11:33.194Z,1015.49
2017-06-14T04:12:43.459Z,1015.51
2017-06-14T04:13:53.719Z,1015.53
2017-06-14T04:15:03.358Z,1015.54
2017-06-14T04:16:13.301Z,1015.54
2017-06-14T04:17:23.563Z,1015.54
2017-06-14T04:18:33.506Z,1015.55
2017-06-14T04:19:43.136Z,1015.6
2017-06-14T04:20:53.087Z,1015.59
2017-06-14T04:22:03.345Z,1015.55
2017-06-14T04:23:12.359Z,1015.59
2017-06-14T04:24:22.620Z,1015.55
2017-06-14T04:25:32.568Z,1015.58
2017-06-14T04:26:42.519Z,1015.58
2017-06-14T04:27:52.782Z,1015.59
2017-06-14T04:29:02.756Z,1015.64
2017-06-14T04:30:12.703Z,1015.62
2017-06-14T04:31:22.967Z,1015.67
2017-06-14T04:32:33.227Z,1015.7
2017-06-14T04:33:43.172Z,1015.67
2017-06-14T04:34:52.804Z,1015.66
2017-06-14T04:36:02.755Z,1015.67
2017-06-14T04:37:13.023Z,1015.67
2017-06-14T04:38:23.279Z,1015.68
2017-06-14T04:39:33.232Z,1015.69
2017-06-14T04:40:43.492Z,1015.69
2017-06-14T04:41:53.752Z,1015.7
2017-06-14T04:43:03.698Z,1015.68
2017-06-14T04:44:13.955Z,1015.75
2017-06-14T04:45:24.208Z,1015.67
2017-06-14T04:46:34.150Z,1015.73
2017-06-14T04:47:44.411Z,1015.7
2017-06-14T04:48:54.677Z,1015.7
2017-06-14T04:50:03.993Z,1015.76
2017-06-14T04:51:13.622Z,1015.82
2017-06-14T04:52:23.893Z,1015.78
2017-06-14T04:53:33.835Z,1015.8
2017-06-14T04:54:43.777Z,1015.81
2017-06-14T04:55:54.042Z,1015.83
2017-06-14T04:57:03.990Z,1015.84
2017-06-14T04:58:13.940Z,1015.83
2017-06-14T04:59:23.887Z,1015.81
2017-06-14T05:00:34.154Z,1015.85
2017-06-14T05:01:43.792Z,1015.85
2017-06-14T05:02:54.054Z,1015.83
2017-06-14T05:04:04.309Z,1015.89
2017-06-14T05:05:14.270Z,1015.97
2017-06-14T05:06:23.908Z,1015.9
2017-06-14T05:07:33.860Z,1015.9
2017-06-14T05:08:44.125Z,1015.9
2017-06-14T05:09:54.385Z,1015.93
2017-06-14T05:11:04.653Z,1015.91
2017-06-14T05:12:14.599Z,1015.94
2017-06-14T05:13:24.226Z,1015.94
2017-06-14T05:14:33.857Z,1015.93
2017-06-14T05:15:44.112Z,1015.91
2017-06-14T05:16:54.065Z,1015.94
2017-06-14T05:18:04.023Z,1015.94
2017-06-14T05:19:13.969Z,1015.96
2017-06-14T05:20:23.602Z,1016
2017-06-14T05:21:33.864Z,1015.98
2017-06-14T05:22:43.814Z,1016.01
2017-06-14T05:23:54.075Z,1016.06
2017-06-14T05:25:04.027Z,1016.03
2017-06-14T05:26:13.662Z,1016.13
2017-06-14T05:27:23.298Z,1016.09
2017-06-14T05:28:33.568Z,1016.08
2017-06-14T05:29:43.835Z,1016.06
2017-06-14T05:30:53.476Z,1016.04
2017-06-14T05:32:03.770Z,1016.04
2017-06-14T05:33:13.715Z,1016.1
2017-06-14T05:34:23.976Z,1016.05
2017-06-14T05:35:34.239Z,1016.1
2017-06-14T05:36:44.194Z,1016.14
2017-06-14T05:37:54.458Z,1016.13
2017-06-14T05:39:04.772Z,1016.17
2017-06-14T05:40:14.724Z,1016.19
2017-06-14T05:41:24.673Z,1016.2
2017-06-14T05:42:34.627Z,1016.21
2017-06-14T05:43:44.264Z,1016.23
2017-06-14T05:44:53.897Z,1016.19
2017-06-14T05:46:03.848Z,1016.19
2017-06-14T05:47:13.793Z,1016.23
2017-06-14T05:48:24.056Z,1016.26
2017-06-14T05:49:34.312Z,1016.26
2017-06-14T05:50:44.588Z,1016.26
2017-06-14T05:51:54.543Z,1016.3
2017-06-14T05:53:04.521Z,1016.3
2017-06-14T05:54:14.492Z,1016.27
2017-06-14T05:55:24.439Z,1016.29
2017-06-14T05:56:34.390Z,1016.27
2017-06-14T05:57:44.025Z,1016.26
2017-06-14T05:58:54.285Z,1016.37
2017-06-14T06:00:04.547Z,1016.28
2017-06-14T06:01:14.846Z,1016.25
2017-06-14T06:02:24.795Z,1016.31
2017-06-14T06:03:34.752Z,1016.3
2017-06-14T06:04:44.696Z,1016.28
2017-06-14T06:05:54.643Z,1016.29
2017-06-14T06:07:04.588Z,1016.27
2017-06-14T06:08:14.843Z,1016.22
2017-06-14T06:09:24.790Z,1016.22
2017-06-14T06:10:34.749Z,1016.25
2017-06-14T06:11:45.003Z,1016.23
2017-06-14T06:12:54.655Z,1016.22
2017-06-14T06:14:04.606Z,1016.22
2017-06-14T06:15:14.863Z,1016.26
2017-06-14T06:16:24.808Z,1016.24
2017-06-14T06:17:34.754Z,1016.26
2017-06-14T06:18:44.701Z,1016.3
2017-06-14T06:19:54.962Z,1016.28
2017-06-14T06:21:05.224Z,1016.29
2017-06-14T06:22:15.170Z,1016.25
2017-06-14T06:23:25.435Z,1016.23
2017-06-14T06:24:35.703Z,1016.25
2017-06-14T06:25:45.022Z,1016.18
2017-06-14T06:26:55.030Z,1016.18
2017-06-14T06:28:04.991Z,1016.16
2017-06-14T06:29:15.263Z,1016.17
2017-06-14T06:30:25.528Z,1016.16
2017-06-14T06:31:35.792Z,1016.21
2017-06-14T06:32:45.733Z,1016.22
2017-06-14T06:33:55.383Z,1016.24
2017-06-14T06:35:05.327Z,1016.23
2017-06-14T06:36:15.274Z,1016.23
2017-06-14T06:37:25.219Z,1016.23
2017-06-14T06:38:35.170Z,1016.17
2017-06-14T06:39:44.803Z,1016.19
2017-06-14T06:40:55.064Z,1016.19
2017-06-14T06:42:05.010Z,1016.18
2017-06-14T06:43:14.962Z,1016.18
2017-06-14T06:44:24.916Z,1016.17
2017-06-14T06:45:34.551Z,1016.18
2017-06-14T06:46:44.191Z,1016.2
2017-06-14T06:47:54.144Z,1016.19
2017-06-14T06:49:04.411Z,1016.15
2017-06-14T06:50:14.365Z,1016.18
2017-06-14T06:51:24.314Z,1016.24
2017-06-14T06:52:34.270Z,1016.18
2017-06-14T06:53:44.222Z,1016.22
2017-06-14T06:54:54.491Z,1016.21
2017-06-14T06:56:04.753Z,1016.16
2017-06-14T06:57:15.018Z,1016.23
2017-06-14T06:58:24.970Z,1016.27
2017-06-14T06:59:35.237Z,1016.3
2017-06-14T07:00:45.191Z,1016.33
2017-06-14T07:01:55.142Z,1016.3
2017-06-14T07:03:05.406Z,1016.3
2017-06-14T07:04:15.354Z,1016.21
2017-06-14T07:05:25.307Z,1016.28
2017-06-14T07:06:35.574Z,1016.3
2017-06-14T07:07:45.522Z,1016.3
2017-06-14T07:08:55.160Z,1016.3
2017-06-14T07:10:05.107Z,1016.29
2017-06-14T07:11:14.748Z,1016.31
2017-06-14T07:12:25.015Z,1016.31
2017-06-14T07:13:34.662Z,1016.37
2017-06-14T07:14:44.916Z,1016.36
2017-06-14T07:15:55.186Z,1016.37
2017-06-14T07:17:05.483Z,1016.46
2017-06-14T07:18:15.118Z,1016.51
2017-06-14T07:19:25.382Z,1016.49
2017-06-14T07:20:34.701Z,1016.41
2017-06-14T07:21:44.646Z,1016.39
2017-06-14T07:22:54.278Z,1016.42
2017-06-14T07:24:03.911Z,1016.41
2017-06-14T07:25:13.858Z,1016.4
2017-06-14T07:26:23.802Z,1016.42
2017-06-14T07:27:33.780Z,1016.48
2017-06-14T07:28:43.426Z,1016.46
2017-06-14T07:29:53.056Z,1016.43
2017-06-14T07:31:03.003Z,1016.47
2017-06-14T07:32:13.267Z,1016.42
2017-06-14T07:33:23.533Z,1016.48
2017-06-14T07:34:33.479Z,1016.47
2017-06-14T07:35:43.748Z,1016.48
2017-06-14T07:36:54.018Z,1016.46
2017-06-14T07:38:04.290Z,1016.45
2017-06-14T07:39:14.570Z,1016.44
2017-06-14T07:40:24.517Z,1016.49
2017-06-14T07:41:34.780Z,1016.47
2017-06-14T07:42:45.044Z,1016.49
2017-06-14T07:43:54.991Z,1016.43
2017-06-14T07:45:04.311Z,1016.53
2017-06-14T07:46:14.272Z,1016.53
2017-06-14T07:47:24.539Z,1016.54
2017-06-14T07:48:34.174Z,1016.57
2017-06-14T07:49:44.466Z,1016.59
2017-06-14T07:50:54.473Z,1016.58
2017-06-14T07:52:03.478Z,1016.57
2017-06-14T07:53:13.752Z,1016.59
2017-06-14T07:54:24.009Z,1016.62
2017-06-14T07:55:34.269Z,1016.59
2017-06-14T07:56:43.584Z,1016.6
2017-06-14T07:57:53.525Z,1016.61
2017-06-14T07:59:02.835Z,1016.58
2017-06-14T08:00:13.087Z,1016.67
2017-06-14T08:01:23.035Z,1016.61
2017-06-14T08:02:32.350Z,1016.63
2017-06-14T08:03:41.981Z,1016.68
2017-06-14T08:04:52.248Z,1016.65
2017-06-14T08:06:01.878Z,1016.71
2017-06-14T08:07:11.824Z,1016.67
2017-06-14T08:08:21.466Z,1016.77
2017-06-14T08:09:31.723Z,1016.79
2017-06-14T08:10:41.981Z,1016.81
2017-06-14T08:11:52.254Z,1016.83
2017-06-14T08:13:02.560Z,1016.78
2017-06-14T08:14:12.827Z,1016.76
2017-06-14T08:15:23.096Z,1016.82
2017-06-14T08:16:33.361Z,1016.86
2017-06-14T08:17:43.306Z,1016.82
2017-06-14T08:18:52.938Z,1016.81
2017-06-14T08:20:03.203Z,1016.83
2017-06-14T08:21:13.468Z,1016.84
2017-06-14T08:22:22.787Z,1016.8
2017-06-14T08:23:32.746Z,1016.82
2017-06-14T08:24:42.066Z,1016.8
2017-06-14T08:25:52.005Z,1016.87
2017-06-14T08:27:02.267Z,1016.78
2017-06-14T08:28:12.215Z,1016.9
2017-06-14T08:29:22.478Z,1016.84
2017-06-14T08:30:32.116Z,1016.84
2017-06-14T08:31:42.065Z,1016.81
2017-06-14T08:32:51.083Z,1016.77
2017-06-14T08:34:01.037Z,1016.85
2017-06-14T08:35:11.293Z,1016.88
2017-06-14T08:36:20.930Z,1016.86
2017-06-14T08:37:30.905Z,1017
2017-06-14T08:38:40.850Z,1016.89
2017-06-14T08:39:50.792Z,1016.8
2017-06-14T08:41:00.788Z,1016.83
2017-06-14T08:42:11.048Z,1016.79
2017-06-14T08:43:21.312Z,1016.74
2017-06-14T08:44:31.583Z,1016.78
2017-06-14T08:45:41.531Z,1016.82
2017-06-14T08:46:51.166Z,1016.83
2017-06-14T08:48:00.506Z,1016.82
2017-06-14T08:49:10.772Z,1016.79
2017-06-14T08:50:20.719Z,1016.77
2017-06-14T08:51:30.978Z,1016.82
2017-06-14T08:52:40.924Z,1016.85
2017-06-14T08:53:50.554Z,1016.85
2017-06-14T08:55:00.497Z,1016.81
2017-06-14T08:56:10.455Z,1016.85
2017-06-14T08:57:20.722Z,1016.89
2017-06-14T08:58:30.981Z,1016.88
2017-06-14T08:59:40.929Z,1016.81
2017-06-14T09:00:51.225Z,1016.93
2017-06-14T09:02:01.529Z,1016.93
2017-06-14T09:03:11.790Z,1016.93
2017-06-14T09:04:22.051Z,1016.96
2017-06-14T09:05:31.999Z,1016.96
2017-06-14T09:06:42.261Z,1016.96
2017-06-14T09:07:52.526Z,1016.97
2017-06-14T09:09:02.788Z,1016.96
2017-06-14T09:10:12.422Z,1016.99
2017-06-14T09:11:22.057Z,1016.98
2017-06-14T09:12:31.689Z,1017.04
2017-06-14T09:13:41.639Z,1016.98
2017-06-14T09:14:51.897Z,1016.98
2017-06-14T09:16:01.844Z,1016.97
2017-06-14T09:17:11.789Z,1016.96
2017-06-14T09:18:22.049Z,1016.95
2017-06-14T09:19:31.371Z,1016.97
2017-06-14T09:20:41.322Z,1016.86
2017-06-14T09:21:51.601Z,1016.87
2017-06-14T09:23:01.863Z,1016.84
2017-06-14T09:24:11.817Z,1016.82
2017-06-14T09:25:21.452Z,1016.83
2017-06-14T09:26:31.395Z,1016.85
2017-06-14T09:27:41.025Z,1016.86
2017-06-14T09:28:51.287Z,1016.81
2017-06-14T09:30:01.560Z,1016.78
2017-06-14T09:31:11.201Z,1016.81
2017-06-14T09:32:21.148Z,1016.8
2017-06-14T09:33:31.095Z,1016.78
2017-06-14T09:34:41.044Z,1016.78
2017-06-14T09:35:50.994Z,1016.76
2017-06-14T09:37:01.265Z,1016.81
2017-06-14T09:38:11.531Z,1016.76
2017-06-14T09:39:21.483Z,1016.7
2017-06-14T09:40:31.122Z,1016.69
2017-06-14T09:41:40.789Z,1016.65
2017-06-14T09:42:50.813Z,1016.7
2017-06-14T09:44:00.452Z,1016.73
2017-06-14T09:45:10.397Z,1016.63
2017-06-14T09:46:20.658Z,1016.63
2017-06-14T09:47:30.935Z,1016.63
2017-06-14T09:48:40.570Z,1016.63
2017-06-14T09:49:50.830Z,1016.58
2017-06-14T09:51:01.090Z,1016.57
2017-06-14T09:52:11.054Z,1016.57
2017-06-14T09:53:21.312Z,1016.57
2017-06-14T09:54:31.266Z,1016.52
2017-06-14T09:55:41.534Z,1016.5
2017-06-14T09:56:51.798Z,1016.49
2017-06-14T09:58:01.429Z,1016.46
2017-06-14T09:59:11.691Z,1016.46
2017-06-14T10:00:21.039Z,1016.43
2017-06-14T10:01:30.986Z,1016.46
2017-06-14T10:02:41.248Z,1016.5
2017-06-14T10:03:50.882Z,1016.45
2017-06-14T10:05:00.831Z,1016.42
2017-06-14T10:06:10.778Z,1016.45
2017-06-14T10:07:20.722Z,1016.45
2017-06-14T10:08:30.985Z,1016.39
2017-06-14T10:09:40.616Z,1016.46
2017-06-14T10:10:50.256Z,1016.49
2017-06-14T10:12:00.217Z,1016.45
2017-06-14T10:13:10.481Z,1016.4
2017-06-14T10:14:20.430Z,1016.34
2017-06-14T10:15:30.380Z,1016.33
2017-06-14T10:16:40.644Z,1016.27
2017-06-14T10:17:50.591Z,1016.36
2017-06-14T10:19:00.856Z,1016.35
2017-06-14T10:20:10.805Z,1016.31
2017-06-14T10:21:20.752Z,1016.34
2017-06-14T10:22:31.005Z,1016.31
2017-06-14T10:23:41.262Z,1016.3
2017-06-14T10:24:51.211Z,1016.26
2017-06-14T10:26:01.471Z,1016.27
2017-06-14T10:27:11.107Z,1016.22
2017-06-14T10:28:21.062Z,1016.22
2017-06-14T10:29:30.697Z,1016.21
2017-06-14T10:30:40.980Z,1016.22
2017-06-14T10:31:51.253Z,1016.23
2017-06-14T10:33:01.203Z,1016.19
2017-06-14T10:34:11.155Z,1016.15
2017-06-14T10:35:21.106Z,1016.17
2017-06-14T10:36:31.057Z,1016.24
2017-06-14T10:37:41.319Z,1016.15
2017-06-14T10:38:51.609Z,1016.17
2017-06-14T10:40:01.588Z,1016.12
2017-06-14T10:41:11.534Z,1016.15
2017-06-14T10:42:21.797Z,1016.16
2017-06-14T10:43:31.746Z,1016.18
2017-06-14T10:44:41.706Z,1016.13
2017-06-14T10:45:51.971Z,1016.23
2017-06-14T10:47:01.919Z,1016.22
2017-06-14T10:48:11.861Z,1016.17
2017-06-14T10:49:21.804Z,1016.23
2017-06-14T10:50:31.451Z,1016.21
2017-06-14T10:51:41.086Z,1016.2
2017-06-14T10:52:50.726Z,1016.22
2017-06-14T10:54:00.679Z,1016.27
2017-06-14T10:55:10.311Z,1016.24
2017-06-14T10:56:20.263Z,1016.2
2017-06-14T10:57:30.554Z,1016.3
2017-06-14T10:58:40.508Z,1016.25
2017-06-14T10:59:50.455Z,1016.29
2017-06-14T11:01:00.408Z,1016.3
2017-06-14T11:02:10.363Z,1016.25
2017-06-14T11:03:19.994Z,1016.24
2017-06-14T11:04:30.264Z,1016.24
2017-06-14T11:05:40.211Z,1016.18
2017-06-14T11:06:50.158Z,1016.28
2017-06-14T11:07:59.793Z,1016.23
2017-06-14T11:09:10.098Z,1016.19
2017-06-14T11:10:20.364Z,1016.19
2017-06-14T11:11:29.998Z,1016.17
2017-06-14T11:12:39.947Z,1016.19
2017-06-14T11:13:50.211Z,1016.18
2017-06-14T11:14:59.843Z,1016.17
2017-06-14T11:16:09.475Z,1016.21
2017-06-14T11:17:19.103Z,1016.17
2017-06-14T11:18:29.365Z,1016.18
2017-06-14T11:19:39.316Z,1016.18
2017-06-14T11:20:49.581Z,1016.2
2017-06-14T11:21:59.847Z,1016.13
2017-06-14T11:23:09.796Z,1016.14
2017-06-14T11:24:20.061Z,1016.15
2017-06-14T11:25:30.330Z,1016.15
2017-06-14T11:26:40.593Z,1016.14
2017-06-14T11:27:50.551Z,1016.12
2017-06-14T11:29:00.496Z,1016.08
2017-06-14T11:30:10.754Z,1016.12
2017-06-14T11:31:20.746Z,1016.1
2017-06-14T11:32:30.382Z,1016.07
2017-06-14T11:33:40.018Z,1016.09
2017-06-14T11:34:50.278Z,1016.14
2017-06-14T11:36:00.549Z,1016.09
2017-06-14T11:37:10.853Z,1016.07
2017-06-14T11:38:20.797Z,1016.06
2017-06-14T11:39:30.746Z,1016.03
2017-06-14T11:40:40.377Z,1016.03
2017-06-14T11:41:50.323Z,1016.04
2017-06-14T11:43:00.592Z,1016.04
2017-06-14T11:44:10.225Z,1016.07
2017-06-14T11:45:20.171Z,1016.12
2017-06-14T11:46:29.804Z,1016.05
2017-06-14T11:47:39.441Z,1016.06
2017-06-14T11:48:49.389Z,1016.07
2017-06-14T11:49:59.021Z,1016.02
2017-06-14T11:51:08.966Z,1015.99
2017-06-14T11:52:19.225Z,1015.97
2017-06-14T11:53:28.855Z,1015.97
2017-06-14T11:54:38.806Z,1016
2017-06-14T11:55:49.065Z,1015.99
2017-06-14T11:56:59.333Z,1016.01
2017-06-14T11:58:08.972Z,1016.06
2017-06-14T11:59:18.920Z,1016.02
2017-06-14T12:00:29.229Z,1015.96
2017-06-14T12:01:39.174Z,1016.01
2017-06-14T12:02:49.439Z,1016.02
2017-06-14T12:03:59.395Z,1016.06
2017-06-14T12:05:09.033Z,1016.02
2017-06-14T12:06:18.980Z,1016.06
2017-06-14T12:07:29.244Z,1016.01
2017-06-14T12:08:39.196Z,1016.04
2017-06-14T12:09:49.462Z,1016.08
2017-06-14T12:10:59.418Z,1016.08
2017-06-14T12:12:09.678Z,1016.07
2017-06-14T12:13:18.996Z,1016.11
2017-06-14T12:14:29.261Z,1016.13
2017-06-14T12:15:39.525Z,1016.14
2017-06-14T12:16:49.163Z,1016.11
2017-06-14T12:17:58.487Z,1016.12
2017-06-14T12:19:08.431Z,1016.12
2017-06-14T12:20:18.382Z,1016.12
2017-06-14T12:21:28.651Z,1016.2
2017-06-14T12:22:38.918Z,1016.16
2017-06-14T12:23:49.192Z,1016.14
2017-06-14T12:24:58.517Z,1016.14
2017-06-14T12:26:08.154Z,1016.11
2017-06-14T12:27:18.421Z,1016.15
2017-06-14T12:28:28.688Z,1016.17
2017-06-14T12:29:38.955Z,1016.12
2017-06-14T12:30:48.913Z,1016.1
2017-06-14T12:31:59.177Z,1016.07
2017-06-14T12:33:09.443Z,1016.1
2017-06-14T12:34:19.702Z,1016.09
2017-06-14T12:35:29.652Z,1016.1
2017-06-14T12:36:39.602Z,1016.06
2017-06-14T12:37:48.917Z,1015.99
2017-06-14T12:38:59.181Z,1016.06
2017-06-14T12:40:09.449Z,1016.03
2017-06-14T12:41:19.727Z,1016
2017-06-14T12:42:29.990Z,1016.03
2017-06-14T12:43:39.619Z,1015.99
2017-06-14T12:44:49.884Z,1015.97
2017-06-14T12:45:59.831Z,1015.92
2017-06-14T12:47:09.780Z,1015.99
2017-06-14T12:48:19.736Z,1016.04
2017-06-14T12:49:30.003Z,1015.98
2017-06-14T12:50:39.946Z,1016.02
2017-06-14T12:51:50.210Z,1016.02
2017-06-14T12:53:00.157Z,1015.98
2017-06-14T12:54:09.788Z,1015.95
2017-06-14T12:55:20.050Z,1015.99
2017-06-14T12:56:29.998Z,1015.99
2017-06-14T12:57:40.267Z,1016.03
2017-06-14T12:58:50.539Z,1016.01
2017-06-14T13:00:00.811Z,1015.94
2017-06-14T13:01:10.448Z,1015.98
2017-06-14T13:02:20.392Z,1015.92
2017-06-14T13:03:30.385Z,1015.96
2017-06-14T13:04:40.645Z,1015.93
2017-06-14T13:05:50.599Z,1015.95
2017-06-14T13:07:00.545Z,1015.91
2017-06-14T13:08:09.861Z,1015.92
2017-06-14T13:09:19.800Z,1015.93
2017-06-14T13:10:30.065Z,1015.92
2017-06-14T13:11:40.018Z,1015.92
2017-06-14T13:12:50.277Z,1015.91
2017-06-14T13:14:00.223Z,1015.91
2017-06-14T13:15:10.483Z,1015.97
2017-06-14T13:16:20.751Z,1015.97
2017-06-14T13:17:31.019Z,1015.93
2017-06-14T13:18:41.291Z,1015.92
2017-06-14T13:19:51.549Z,1015.94
2017-06-14T13:21:01.815Z,1015.98
2017-06-14T13:22:11.761Z,1015.96
2017-06-14T13:23:21.710Z,1015.91
2017-06-14T13:24:31.342Z,1015.88
2017-06-14T13:25:41.289Z,1015.88
2017-06-14T13:26:51.246Z,1015.85
2017-06-14T13:28:01.511Z,1015.84
2017-06-14T13:29:11.158Z,1015.83
2017-06-14T13:30:21.143Z,1015.8
2017-06-14T13:31:31.093Z,1015.81
2017-06-14T13:32:41.394Z,1015.82
2017-06-14T13:33:51.348Z,1015.74
2017-06-14T13:35:01.649Z,1015.79
2017-06-14T13:36:11.603Z,1015.77
2017-06-14T13:37:21.901Z,1015.75
2017-06-14T13:38:32.167Z,1015.73
2017-06-14T13:39:41.806Z,1015.66
2017-06-14T13:40:52.072Z,1015.66
2017-06-14T13:42:02.018Z,1015.72
2017-06-14T13:43:12.279Z,1015.71
2017-06-14T13:44:22.226Z,1015.74
2017-06-14T13:45:32.177Z,1015.74
2017-06-14T13:46:42.435Z,1015.75
2017-06-14T13:47:52.698Z,1015.7
2017-06-14T13:49:02.642Z,1015.73
2017-06-14T13:50:12.286Z,1015.75
2017-06-14T13:54:02.516Z,1015.66
2017-06-14T13:55:11.830Z,1015.66
2017-06-14T13:56:21.770Z,1015.63
2017-06-14T13:57:31.719Z,1015.68
2017-06-14T13:58:41.989Z,1015.69
2017-06-14T13:59:51.937Z,1015.66
2017-06-14T14:01:01.573Z,1015.63
2017-06-14T14:02:11.838Z,1015.64
2017-06-14T14:03:21.477Z,1015.62
2017-06-14T14:04:31.736Z,1015.58
2017-06-14T14:05:41.371Z,1015.56
2017-06-14T14:06:51.632Z,1015.59
2017-06-14T14:08:01.586Z,1015.59
2017-06-14T14:09:11.845Z,1015.59
2017-06-14T14:10:21.797Z,1015.64
2017-06-14T14:11:32.062Z,1015.66
2017-06-14T14:12:41.383Z,1015.64